Terminal Aerodrome Forecast
Issued by NWS

Home | Current Version | Previous Version | Text Only | Print | Product List | Glossary Off
Versions: 1 2 3 4 5 6 7 8 9 10 11 12 13 14 15 16 17 18 19 20 21 22

000
FTUS41 KCLE 241200 AAA
TAFFDY
TAF AMD
KFDY 241230Z 2413/2512 15010KT 6SM BR BKN005 OVC025
      TEMPO 2413/2415 3SM BR
     FM241500 15012KT 5SM BR OVC008
     FM242100 18015G25KT 4SM -SHRA OVC010
     FM242300 24022G40KT P6SM OVC012
     FM250700 25015G30KT 3SM -SHSN OVC012
     FM251000 25012G22KT P6SM OVC015=

USA.gov is the U.S. government's official web portal to all federal, state and local government web resources and services.